createdAt,value
2018-10-18T00:06:47.177Z,67.19
2018-10-18T00:15:08.229Z,67.79
2018-10-18T00:23:29.236Z,68.52
2018-10-18T00:31:50.282Z,67.37
2018-10-18T00:40:11.313Z,67.78
2018-10-18T00:48:32.329Z,68.30
2018-10-18T00:56:54.394Z,69.00
2018-10-18T01:05:15.438Z,68.31
2018-10-18T01:13:36.475Z,67.96
2018-10-18T01:21:57.525Z,69.02
2018-10-18T01:30:19.576Z,68.77
2018-10-18T01:38:41.648Z,69.07
2018-10-18T01:47:03.299Z,68.73
2018-10-18T01:55:24.354Z,69.09
2018-10-18T02:03:45.383Z,67.98
2018-10-18T02:12:07.515Z,68.91
2018-10-18T02:20:30.682Z,68.67
2018-10-18T02:28:51.690Z,68.58
2018-10-18T02:37:12.718Z,68.89
2018-10-18T02:45:33.770Z,67.67
2018-10-18T02:53:55.113Z,68.32
2018-10-18T03:02:16.139Z,67.71
2018-10-18T03:10:37.155Z,67.81
2018-10-18T03:18:58.195Z,68.52
2018-10-18T03:27:19.244Z,68.06
2018-10-18T03:35:40.566Z,68.81
2018-10-18T03:44:01.587Z,68.10
2018-10-18T03:52:28.129Z,68.72
2018-10-18T04:09:17.017Z,68.42
2018-10-18T04:17:38.039Z,70.09
2018-10-18T04:25:59.060Z,69.75
2018-10-18T04:34:21.137Z,69.74
2018-10-18T04:42:42.193Z,69.42
2018-10-18T04:51:03.283Z,69.82
2018-10-18T04:59:24.635Z,68.80
2018-10-18T05:07:45.665Z,68.75
2018-10-18T05:16:06.987Z,69.31
2018-10-18T05:24:31.785Z,69.29
2018-10-18T05:32:52.811Z,70.78
2018-10-18T05:58:08.160Z,69.79
2018-10-18T06:06:29.190Z,68.91
2018-10-18T06:14:50.234Z,70.22
2018-10-18T06:23:11.594Z,70.45
2018-10-18T06:31:38.424Z,70.38
2018-10-18T06:48:26.696Z,70.74
2018-10-18T06:56:47.730Z,70.42
2018-10-18T07:05:08.731Z,71.76
2018-10-18T07:13:33.032Z,71.00
2018-10-18T07:21:55.095Z,71.88
2018-10-18T07:30:16.179Z,71.10
2018-10-18T07:38:37.167Z,68.97
2018-10-18T07:46:58.539Z,67.74
2018-10-18T07:55:20.625Z,67.03
2018-10-18T08:03:41.637Z,67.62
2018-10-18T08:12:06.488Z,65.52
2018-10-18T08:20:27.531Z,66.53
2018-10-18T08:28:48.532Z,64.91
2018-10-18T08:37:09.591Z,63.65
2018-10-18T08:45:30.589Z,63.23
2018-10-18T08:53:51.607Z,61.75
2018-10-18T09:02:14.700Z,61.64
2018-10-18T09:19:06.759Z,62.91
2018-10-18T09:27:27.790Z,63.59
2018-10-18T09:35:48.827Z,62.94
2018-10-18T09:44:10.118Z,61.83
2018-10-18T09:52:31.226Z,60.03
2018-10-18T10:00:52.421Z,58.64
2018-10-18T10:09:13.441Z,57.78
2018-10-18T10:17:35.624Z,56.90
2018-10-18T10:25:56.623Z,56.06
2018-10-18T10:34:17.643Z,55.92
2018-10-18T10:42:39.773Z,55.10
2018-10-18T10:51:00.819Z,54.06
2018-10-18T11:07:49.028Z,52.15
2018-10-18T11:16:10.136Z,52.77
2018-10-18T11:24:31.169Z,50.55
2018-10-18T11:32:52.262Z,47.96
2018-10-18T11:41:14.318Z,49.93
2018-10-18T11:49:35.358Z,49.70
2018-10-18T11:58:00.114Z,44.68
2018-10-18T12:06:21.138Z,42.66
2018-10-18T12:14:42.140Z,45.64
2018-10-18T12:23:03.226Z,49.19
2018-10-18T12:31:30.107Z,50.89
2018-10-18T12:39:55.379Z,53.21
2018-10-18T12:48:16.418Z,53.67
2018-10-18T12:56:37.413Z,54.10
2018-10-18T13:04:58.408Z,53.38
2018-10-18T13:13:22.607Z,52.15
2018-10-18T13:21:43.623Z,51.51
2018-10-18T13:30:04.700Z,50.02
2018-10-18T13:38:25.733Z,51.83
2018-10-18T13:46:46.758Z,53.87
2018-10-18T13:55:09.894Z,53.02
2018-10-18T14:03:30.900Z,50.51
2018-10-18T14:11:51.940Z,47.72
2018-10-18T14:20:13.320Z,49.48
2018-10-18T14:28:34.288Z,52.83
2018-10-18T14:36:55.698Z,56.14
2018-10-18T14:45:16.741Z,58.06
2018-10-18T15:02:04.824Z,59.43
2018-10-18T15:18:52.638Z,60.49
2018-10-18T15:27:13.662Z,61.14
2018-10-18T15:35:34.689Z,62.68
2018-10-18T15:43:59.220Z,62.05
2018-10-18T15:52:20.290Z,63.42
2018-10-18T16:00:46.338Z,63.53
2018-10-18T16:09:07.367Z,63.96
2018-10-18T16:17:28.361Z,64.81
2018-10-18T16:25:49.444Z,64.36
2018-10-18T16:34:10.437Z,63.98
2018-10-18T16:42:31.582Z,65.08
2018-10-18T16:59:27.111Z,65.91
2018-10-18T17:07:49.258Z,66.09
2018-10-18T17:16:10.326Z,65.33
2018-10-18T17:24:31.330Z,64.02
2018-10-18T17:32:52.446Z,62.97
2018-10-18T17:41:13.696Z,64.39
2018-10-18T17:49:39.987Z,64.43
2018-10-18T17:58:01.072Z,64.92
2018-10-18T18:06:22.242Z,65.90
2018-10-18T18:14:43.122Z,66.46
2018-10-18T18:31:32.587Z,66.47
2018-10-18T18:48:24.530Z,65.67
2018-10-18T18:56:45.586Z,66.86
2018-10-18T19:05:10.818Z,65.47
2018-10-18T19:13:31.994Z,66.22
2018-10-18T19:21:52.991Z,66.03
2018-10-18T19:38:46.016Z,65.15
2018-10-18T19:47:07.045Z,65.06
2018-10-18T19:55:28.048Z,64.84
2018-10-18T20:20:42.623Z,62.50
2018-10-18T20:29:03.707Z,63.07
2018-10-18T20:37:24.774Z,63.04
2018-10-18T20:45:45.835Z,61.93
2018-10-18T20:54:07.246Z,62.37
2018-10-18T21:02:28.259Z,62.72
2018-10-18T21:10:49.290Z,61.87
2018-10-18T21:19:10.308Z,62.43
2018-10-18T21:27:31.336Z,62.90
2018-10-18T21:35:53.464Z,62.67
2018-10-18T21:44:14.506Z,62.44
2018-10-18T21:52:35.509Z,62.32
2018-10-18T22:00:57.603Z,62.87
2018-10-18T22:09:18.662Z,62.30
2018-10-18T22:17:39.665Z,62.80
2018-10-18T22:26:00.683Z,62.36
2018-10-18T22:34:21.711Z,62.74
2018-10-18T22:42:42.737Z,63.00
2018-10-18T22:51:04.855Z,63.38
2018-10-18T22:59:25.936Z,63.25
2018-10-18T23:07:46.986Z,63.18
2018-10-18T23:16:07.984Z,63.54
2018-10-18T23:24:29.060Z,63.89
2018-10-18T23:32:50.154Z,64.35
2018-10-18T23:41:12.356Z,66.06
2018-10-18T23:49:39.395Z,65.76
2018-10-18T23:58:00.435Z,65.74
